sensor_id;sensor_type;location;lat;lon;timestamp;P1;durP1;ratioP1;P2;durP2;ratioP2
10467;SDS011;5281;48.878;9.394;2023-02-01T00:01:05;2.30;;;2.10;;
10467;SDS011;5281;48.878;9.394;2023-02-01T00:03:32;2.60;;;2.10;;
10467;SDS011;5281;48.878;9.394;2023-02-01T00:05:59;2.63;;;2.03;;
10467;SDS011;5281;48.878;9.394;2023-02-01T00:08:26;3.53;;;2.30;;
10467;SDS011;5281;48.878;9.394;2023-02-01T00:10:59;4.10;;;2.20;;
10467;SDS011;5281;48.878;9.394;2023-02-01T00:13:27;2.73;;;2.20;;
10467;SDS011;5281;48.878;9.394;2023-02-01T00:16:02;3.27;;;2.23;;
10467;SDS011;5281;48.878;9.394;2023-02-01T00:18:30;4.10;;;2.30;;
10467;SDS011;5281;48.878;9.394;2023-02-01T00:20:57;2.70;;;2.20;;
10467;SDS011;5281;48.878;9.394;2023-02-01T00:23:24;2.90;;;2.10;;
10467;SDS011;5281;48.878;9.394;2023-02-01T00:25:50;3.23;;;2.10;;
10467;SDS011;5281;48.878;9.394;2023-02-01T00:28:17;2.93;;;2.03;;
10467;SDS011;5281;48.878;9.394;2023-02-01T00:30:44;3.60;;;2.30;;
10467;SDS011;5281;48.878;9.394;2023-02-01T00:33:12;3.97;;;2.30;;
10467;SDS011;5281;48.878;9.394;2023-02-01T00:35:39;2.70;;;2.00;;
10467;SDS011;5281;48.878;9.394;2023-02-01T00:38:05;3.63;;;1.90;;
10467;SDS011;5281;48.878;9.394;2023-02-01T00:40:32;3.20;;;1.90;;
10467;SDS011;5281;48.878;9.394;2023-02-01T00:42:59;2.53;;;2.00;;
10467;SDS011;5281;48.878;9.394;2023-02-01T00:45:26;3.00;;;2.00;;
10467;SDS011;5281;48.878;9.394;2023-02-01T00:47:52;1.70;;;1.60;;
10467;SDS011;5281;48.878;9.394;2023-02-01T00:50:21;2.57;;;1.70;;
10467;SDS011;5281;48.878;9.394;2023-02-01T00:52:47;1.93;;;1.50;;
10467;SDS011;5281;48.878;9.394;2023-02-01T00:55:14;2.20;;;1.70;;
10467;SDS011;5281;48.878;9.394;2023-02-01T00:57:41;2.50;;;1.70;;
10467;SDS011;5281;48.878;9.394;2023-02-01T01:00:08;2.27;;;1.50;;
10467;SDS011;5281;48.878;9.394;2023-02-01T01:02:36;2.20;;;1.60;;
10467;SDS011;5281;48.878;9.394;2023-02-01T01:05:02;3.07;;;2.10;;
10467;SDS011;5281;48.878;9.394;2023-02-01T01:07:31;1.30;;;1.13;;
10467;SDS011;5281;48.878;9.394;2023-02-01T01:09:58;3.10;;;1.47;;
10467;SDS011;5281;48.878;9.394;2023-02-01T01:12:25;2.10;;;1.50;;
10467;SDS011;5281;48.878;9.394;2023-02-01T01:14:52;2.10;;;1.40;;
10467;SDS011;5281;48.878;9.394;2023-02-01T01:17:18;2.40;;;1.40;;
10467;SDS011;5281;48.878;9.394;2023-02-01T01:19:45;1.47;;;1.30;;
10467;SDS011;5281;48.878;9.394;2023-02-01T01:22:12;1.53;;;1.40;;
10467;SDS011;5281;48.878;9.394;2023-02-01T01:24:40;1.37;;;1.27;;
10467;SDS011;5281;48.878;9.394;2023-02-01T01:27:07;1.77;;;1.57;;
10467;SDS011;5281;48.878;9.394;2023-02-01T01:29:34;1.87;;;1.50;;
10467;SDS011;5281;48.878;9.394;2023-02-01T01:32:01;1.40;;;1.30;;
10467;SDS011;5281;48.878;9.394;2023-02-01T01:34:27;1.50;;;1.40;;
10467;SDS011;5281;48.878;9.394;2023-02-01T01:36:54;2.30;;;1.40;;
10467;SDS011;5281;48.878;9.394;2023-02-01T01:39:21;2.37;;;1.90;;
10467;SDS011;5281;48.878;9.394;2023-02-01T01:41:49;2.80;;;1.83;;
10467;SDS011;5281;48.878;9.394;2023-02-01T01:47:20;1.63;;;1.40;;
10467;SDS011;5281;48.878;9.394;2023-02-01T01:49:47;1.60;;;1.20;;
10467;SDS011;5281;48.878;9.394;2023-02-01T01:52:15;1.23;;;1.13;;
10467;SDS011;5281;48.878;9.394;2023-02-01T01:54:42;1.30;;;1.03;;
10467;SDS011;5281;48.878;9.394;2023-02-01T01:57:14;1.00;;;0.90;;
10467;SDS011;5281;48.878;9.394;2023-02-01T01:59:46;1.27;;;1.00;;
10467;SDS011;5281;48.878;9.394;2023-02-01T02:02:16;1.43;;;1.30;;
10467;SDS011;5281;48.878;9.394;2023-02-01T02:04:43;1.30;;;1.20;;
10467;SDS011;5281;48.878;9.394;2023-02-01T02:07:10;1.57;;;1.00;;
10467;SDS011;5281;48.878;9.394;2023-02-01T02:09:40;1.70;;;1.20;;
10467;SDS011;5281;48.878;9.394;2023-02-01T02:12:07;1.50;;;1.00;;
10467;SDS011;5281;48.878;9.394;2023-02-01T02:14:36;1.10;;;0.93;;
10467;SDS011;5281;48.878;9.394;2023-02-01T02:17:07;1.53;;;1.10;;
10467;SDS011;5281;48.878;9.394;2023-02-01T02:19:54;1.17;;;1.00;;
10467;SDS011;5281;48.878;9.394;2023-02-01T02:23:01;2.00;;;1.00;;
10467;SDS011;5281;48.878;9.394;2023-02-01T02:25:44;1.30;;;1.20;;
10467;SDS011;5281;48.878;9.394;2023-02-01T02:28:30;1.37;;;1.20;;
10467;SDS011;5281;48.878;9.394;2023-02-01T02:31:46;2.00;;;1.17;;
10467;SDS011;5281;48.878;9.394;2023-02-01T02:34:36;2.33;;;1.20;;
10467;SDS011;5281;48.878;9.394;2023-02-01T02:37:09;1.93;;;1.10;;
10467;SDS011;5281;48.878;9.394;2023-02-01T02:39:45;1.67;;;1.30;;
10467;SDS011;5281;48.878;9.394;2023-02-01T02:42:19;1.90;;;1.20;;
10467;SDS011;5281;48.878;9.394;2023-02-01T02:45:11;1.73;;;1.43;;
10467;SDS011;5281;48.878;9.394;2023-02-01T02:48:02;1.90;;;1.33;;
10467;SDS011;5281;48.878;9.394;2023-02-01T02:50:40;1.87;;;1.40;;
10467;SDS011;5281;48.878;9.394;2023-02-01T02:53:28;1.97;;;1.50;;
10467;SDS011;5281;48.878;9.394;2023-02-01T02:56:16;2.27;;;1.47;;
10467;SDS011;5281;48.878;9.394;2023-02-01T02:59:04;1.40;;;1.27;;
10467;SDS011;5281;48.878;9.394;2023-02-01T03:01:50;2.03;;;1.60;;
10467;SDS011;5281;48.878;9.394;2023-02-01T03:04:35;1.73;;;1.50;;
10467;SDS011;5281;48.878;9.394;2023-02-01T03:07:12;1.73;;;1.23;;
10467;SDS011;5281;48.878;9.394;2023-02-01T03:09:41;2.20;;;1.50;;
10467;SDS011;5281;48.878;9.394;2023-02-01T03:12:11;3.73;;;1.80;;
10467;SDS011;5281;48.878;9.394;2023-02-01T03:14:59;2.63;;;1.70;;
10467;SDS011;5281;48.878;9.394;2023-02-01T03:17:33;1.80;;;1.60;;
10467;SDS011;5281;48.878;9.394;2023-02-01T03:20:05;2.13;;;1.63;;
10467;SDS011;5281;48.878;9.394;2023-02-01T03:22:37;2.20;;;1.57;;
10467;SDS011;5281;48.878;9.394;2023-02-01T03:25:08;1.83;;;1.30;;
10467;SDS011;5281;48.878;9.394;2023-02-01T03:27:40;2.07;;;1.37;;
10467;SDS011;5281;48.878;9.394;2023-02-01T03:30:14;2.80;;;1.17;;
10467;SDS011;5281;48.878;9.394;2023-02-01T03:32:45;2.97;;;1.57;;
10467;SDS011;5281;48.878;9.394;2023-02-01T03:35:26;1.70;;;1.40;;
10467;SDS011;5281;48.878;9.394;2023-02-01T03:38:00;1.50;;;1.40;;
10467;SDS011;5281;48.878;9.394;2023-02-01T03:40:34;3.03;;;1.67;;
10467;SDS011;5281;48.878;9.394;2023-02-01T03:43:02;1.60;;;1.50;;
10467;SDS011;5281;48.878;9.394;2023-02-01T03:45:34;2.00;;;1.40;;
10467;SDS011;5281;48.878;9.394;2023-02-01T03:48:05;2.63;;;1.70;;
10467;SDS011;5281;48.878;9.394;2023-02-01T03:50:35;1.83;;;1.40;;
10467;SDS011;5281;48.878;9.394;2023-02-01T03:53:06;2.77;;;1.60;;
10467;SDS011;5281;48.878;9.394;2023-02-01T03:55:35;1.60;;;1.50;;
10467;SDS011;5281;48.878;9.394;2023-02-01T03:58:04;1.60;;;1.50;;
10467;SDS011;5281;48.878;9.394;2023-02-01T04:00:34;2.20;;;1.43;;
10467;SDS011;5281;48.878;9.394;2023-02-01T04:03:00;2.50;;;1.67;;
10467;SDS011;5281;48.878;9.394;2023-02-01T04:05:28;1.70;;;1.40;;
10467;SDS011;5281;48.878;9.394;2023-02-01T04:07:56;2.97;;;1.40;;
10467;SDS011;5281;48.878;9.394;2023-02-01T04:10:24;2.70;;;1.70;;
10467;SDS011;5281;48.878;9.394;2023-02-01T04:12:52;1.67;;;1.30;;
10467;SDS011;5281;48.878;9.394;2023-02-01T04:15:18;1.47;;;1.27;;
10467;SDS011;5281;48.878;9.394;2023-02-01T04:17:45;2.03;;;1.47;;
10467;SDS011;5281;48.878;9.394;2023-02-01T04:20:12;1.43;;;1.33;;
10467;SDS011;5281;48.878;9.394;2023-02-01T04:22:39;1.77;;;1.50;;
10467;SDS011;5281;48.878;9.394;2023-02-01T04:25:06;1.63;;;1.40;;
10467;SDS011;5281;48.878;9.394;2023-02-01T04:27:35;2.70;;;1.80;;
10467;SDS011;5281;48.878;9.394;2023-02-01T04:30:02;1.67;;;1.40;;
10467;SDS011;5281;48.878;9.394;2023-02-01T04:32:29;2.27;;;1.60;;
10467;SDS011;5281;48.878;9.394;2023-02-01T04:34:56;3.30;;;1.67;;
10467;SDS011;5281;48.878;9.394;2023-02-01T04:37:23;1.73;;;1.30;;
10467;SDS011;5281;48.878;9.394;2023-02-01T04:39:50;1.53;;;1.37;;
10467;SDS011;5281;48.878;9.394;2023-02-01T04:42:16;2.97;;;1.80;;
10467;SDS011;5281;48.878;9.394;2023-02-01T04:44:44;2.63;;;1.53;;
10467;SDS011;5281;48.878;9.394;2023-02-01T04:47:11;2.47;;;1.50;;
10467;SDS011;5281;48.878;9.394;2023-02-01T04:49:39;1.60;;;1.20;;
10467;SDS011;5281;48.878;9.394;2023-02-01T04:52:06;3.70;;;1.87;;
10467;SDS011;5281;48.878;9.394;2023-02-01T04:54:33;2.57;;;1.60;;
10467;SDS011;5281;48.878;9.394;2023-02-01T04:57:00;2.67;;;1.50;;
10467;SDS011;5281;48.878;9.394;2023-02-01T04:59:26;1.67;;;1.50;;
10467;SDS011;5281;48.878;9.394;2023-02-01T05:01:55;2.20;;;1.70;;
10467;SDS011;5281;48.878;9.394;2023-02-01T05:04:21;2.03;;;1.77;;
10467;SDS011;5281;48.878;9.394;2023-02-01T05:06:48;1.80;;;1.40;;
10467;SDS011;5281;48.878;9.394;2023-02-01T05:09:15;2.43;;;1.57;;
10467;SDS011;5281;48.878;9.394;2023-02-01T05:11:42;2.47;;;1.63;;
10467;SDS011;5281;48.878;9.394;2023-02-01T05:14:26;2.30;;;1.50;;
10467;SDS011;5281;48.878;9.394;2023-02-01T05:16:54;2.07;;;1.30;;
10467;SDS011;5281;48.878;9.394;2023-02-01T05:19:21;1.80;;;1.30;;
10467;SDS011;5281;48.878;9.394;2023-02-01T05:21:48;2.07;;;1.60;;
10467;SDS011;5281;48.878;9.394;2023-02-01T05:24:14;2.33;;;1.60;;
10467;SDS011;5281;48.878;9.394;2023-02-01T05:26:45;1.73;;;1.47;;
10467;SDS011;5281;48.878;9.394;2023-02-01T05:29:12;1.70;;;1.60;;
10467;SDS011;5281;48.878;9.394;2023-02-01T05:31:39;2.57;;;1.90;;
10467;SDS011;5281;48.878;9.394;2023-02-01T05:34:07;2.27;;;1.67;;
10467;SDS011;5281;48.878;9.394;2023-02-01T05:36:34;3.60;;;1.90;;
10467;SDS011;5281;48.878;9.394;2023-02-01T05:39:00;3.27;;;1.97;;
10467;SDS011;5281;48.878;9.394;2023-02-01T05:41:27;2.30;;;1.60;;
10467;SDS011;5281;48.878;9.394;2023-02-01T05:43:54;2.60;;;1.60;;
10467;SDS011;5281;48.878;9.394;2023-02-01T05:46:21;2.47;;;1.73;;
10467;SDS011;5281;48.878;9.394;2023-02-01T05:48:48;2.30;;;1.60;;
10467;SDS011;5281;48.878;9.394;2023-02-01T05:51:16;3.20;;;1.50;;
10467;SDS011;5281;48.878;9.394;2023-02-01T05:53:42;1.83;;;1.57;;
10467;SDS011;5281;48.878;9.394;2023-02-01T05:56:09;2.07;;;1.57;;
10467;SDS011;5281;48.878;9.394;2023-02-01T05:58:36;2.80;;;2.00;;
10467;SDS011;5281;48.878;9.394;2023-02-01T06:01:03;4.10;;;1.97;;
10467;SDS011;5281;48.878;9.394;2023-02-01T06:03:30;2.03;;;1.33;;
10467;SDS011;5281;48.878;9.394;2023-02-01T06:05:57;3.20;;;1.30;;
10467;SDS011;5281;48.878;9.394;2023-02-01T06:08:26;3.23;;;1.53;;
10467;SDS011;5281;48.878;9.394;2023-02-01T06:10:57;2.07;;;1.27;;
10467;SDS011;5281;48.878;9.394;2023-02-01T06:13:24;4.47;;;1.50;;
10467;SDS011;5281;48.878;9.394;2023-02-01T06:15:51;2.20;;;1.40;;
10467;SDS011;5281;48.878;9.394;2023-02-01T06:18:18;1.33;;;1.23;;
10467;SDS011;5281;48.878;9.394;2023-02-01T06:20:44;2.17;;;1.27;;
10467;SDS011;5281;48.878;9.394;2023-02-01T06:23:17;1.93;;;1.40;;
10467;SDS011;5281;48.878;9.394;2023-02-01T06:25:45;2.47;;;1.40;;
10467;SDS011;5281;48.878;9.394;2023-02-01T06:28:12;5.20;;;2.10;;
10467;SDS011;5281;48.878;9.394;2023-02-01T06:30:39;3.33;;;1.50;;
10467;SDS011;5281;48.878;9.394;2023-02-01T06:33:10;4.30;;;1.33;;
10467;SDS011;5281;48.878;9.394;2023-02-01T06:35:37;1.50;;;1.33;;
10467;SDS011;5281;48.878;9.394;2023-02-01T06:38:04;2.73;;;1.57;;
10467;SDS011;5281;48.878;9.394;2023-02-01T06:40:31;2.03;;;1.50;;
10467;SDS011;5281;48.878;9.394;2023-02-01T06:42:59;2.87;;;1.87;;
10467;SDS011;5281;48.878;9.394;2023-02-01T06:45:26;3.30;;;1.60;;
10467;SDS011;5281;48.878;9.394;2023-02-01T06:47:52;2.90;;;1.70;;
10467;SDS011;5281;48.878;9.394;2023-02-01T06:50:19;3.67;;;1.40;;
10467;SDS011;5281;48.878;9.394;2023-02-01T06:52:46;3.77;;;1.70;;
10467;SDS011;5281;48.878;9.394;2023-02-01T06:55:13;2.00;;;1.33;;
10467;SDS011;5281;48.878;9.394;2023-02-01T06:57:40;2.77;;;1.40;;
10467;SDS011;5281;48.878;9.394;2023-02-01T07:00:09;2.20;;;1.40;;
10467;SDS011;5281;48.878;9.394;2023-02-01T07:02:36;2.00;;;1.30;;
10467;SDS011;5281;48.878;9.394;2023-02-01T07:05:04;7.93;;;4.57;;
10467;SDS011;5281;48.878;9.394;2023-02-01T07:07:31;4.50;;;2.70;;
10467;SDS011;5281;48.878;9.394;2023-02-01T07:09:58;1.33;;;1.23;;
10467;SDS011;5281;48.878;9.394;2023-02-01T07:12:25;1.80;;;1.50;;
10467;SDS011;5281;48.878;9.394;2023-02-01T07:14:51;4.50;;;1.77;;
10467;SDS011;5281;48.878;9.394;2023-02-01T07:17:20;3.37;;;1.70;;
10467;SDS011;5281;48.878;9.394;2023-02-01T07:19:46;2.53;;;1.53;;
10467;SDS011;5281;48.878;9.394;2023-02-01T07:22:15;2.57;;;1.50;;
10467;SDS011;5281;48.878;9.394;2023-02-01T07:24:42;2.83;;;1.60;;
10467;SDS011;5281;48.878;9.394;2023-02-01T07:27:09;2.63;;;1.70;;
10467;SDS011;5281;48.878;9.394;2023-02-01T07:29:36;3.77;;;1.90;;
10467;SDS011;5281;48.878;9.394;2023-02-01T07:32:02;4.30;;;1.97;;
10467;SDS011;5281;48.878;9.394;2023-02-01T07:34:31;6.60;;;2.33;;
10467;SDS011;5281;48.878;9.394;2023-02-01T07:36:58;4.17;;;2.13;;
10467;SDS011;5281;48.878;9.394;2023-02-01T07:39:25;4.80;;;2.40;;
10467;SDS011;5281;48.878;9.394;2023-02-01T07:41:53;5.43;;;2.70;;
10467;SDS011;5281;48.878;9.394;2023-02-01T07:44:21;5.47;;;2.67;;
10467;SDS011;5281;48.878;9.394;2023-02-01T07:46:48;6.43;;;2.70;;
10467;SDS011;5281;48.878;9.394;2023-02-01T07:49:15;5.77;;;2.77;;
10467;SDS011;5281;48.878;9.394;2023-02-01T07:51:43;9.23;;;2.93;;
10467;SDS011;5281;48.878;9.394;2023-02-01T07:54:10;5.87;;;2.93;;
10467;SDS011;5281;48.878;9.394;2023-02-01T07:56:37;7.17;;;3.13;;
10467;SDS011;5281;48.878;9.394;2023-02-01T07:59:03;6.33;;;3.13;;
10467;SDS011;5281;48.878;9.394;2023-02-01T08:01:31;6.77;;;3.13;;
10467;SDS011;5281;48.878;9.394;2023-02-01T08:03:58;7.60;;;2.97;;
10467;SDS011;5281;48.878;9.394;2023-02-01T08:06:26;6.03;;;2.67;;
10467;SDS011;5281;48.878;9.394;2023-02-01T08:08:55;5.10;;;3.07;;
10467;SDS011;5281;48.878;9.394;2023-02-01T08:11:22;9.57;;;6.53;;
10467;SDS011;5281;48.878;9.394;2023-02-01T08:13:49;6.87;;;2.70;;
10467;SDS011;5281;48.878;9.394;2023-02-01T08:16:17;6.33;;;2.60;;
10467;SDS011;5281;48.878;9.394;2023-02-01T08:18:46;6.10;;;2.37;;
10467;SDS011;5281;48.878;9.394;2023-02-01T08:21:13;6.70;;;2.90;;
10467;SDS011;5281;48.878;9.394;2023-02-01T08:23:41;7.10;;;2.87;;
10467;SDS011;5281;48.878;9.394;2023-02-01T08:26:11;7.67;;;2.83;;
10467;SDS011;5281;48.878;9.394;2023-02-01T08:28:40;6.37;;;2.90;;
10467;SDS011;5281;48.878;9.394;2023-02-01T08:31:09;7.73;;;2.83;;
10467;SDS011;5281;48.878;9.394;2023-02-01T08:33:37;6.33;;;2.60;;
10467;SDS011;5281;48.878;9.394;2023-02-01T08:36:04;7.47;;;3.15;;
10467;SDS011;5281;48.878;9.394;2023-02-01T08:38:34;7.43;;;2.73;;
10467;SDS011;5281;48.878;9.394;2023-02-01T08:41:03;5.97;;;2.33;;
10467;SDS011;5281;48.878;9.394;2023-02-01T08:43:32;7.43;;;2.70;;
10467;SDS011;5281;48.878;9.394;2023-02-01T08:45:59;5.63;;;2.40;;
10467;SDS011;5281;48.878;9.394;2023-02-01T08:48:26;6.00;;;2.70;;
10467;SDS011;5281;48.878;9.394;2023-02-01T08:50:53;12.37;;;3.30;;
10467;SDS011;5281;48.878;9.394;2023-02-01T08:53:20;7.37;;;2.87;;
10467;SDS011;5281;48.878;9.394;2023-02-01T08:55:46;8.73;;;2.97;;
10467;SDS011;5281;48.878;9.394;2023-02-01T08:58:13;7.93;;;2.70;;
10467;SDS011;5281;48.878;9.394;2023-02-01T09:00:43;9.67;;;2.63;;
10467;SDS011;5281;48.878;9.394;2023-02-01T09:03:10;7.83;;;3.20;;
10467;SDS011;5281;48.878;9.394;2023-02-01T09:05:37;7.90;;;2.47;;
10467;SDS011;5281;48.878;9.394;2023-02-01T09:08:05;9.37;;;3.10;;
10467;SDS011;5281;48.878;9.394;2023-02-01T09:10:32;8.53;;;2.90;;
10467;SDS011;5281;48.878;9.394;2023-02-01T09:12:59;10.93;;;3.00;;
10467;SDS011;5281;48.878;9.394;2023-02-01T09:15:26;8.37;;;2.60;;
10467;SDS011;5281;48.878;9.394;2023-02-01T09:17:54;9.03;;;2.50;;
10467;SDS011;5281;48.878;9.394;2023-02-01T09:20:21;7.80;;;2.60;;
10467;SDS011;5281;48.878;9.394;2023-02-01T09:22:49;6.33;;;2.83;;
10467;SDS011;5281;48.878;9.394;2023-02-01T09:25:16;7.80;;;2.70;;
10467;SDS011;5281;48.878;9.394;2023-02-01T09:27:43;8.83;;;2.47;;
10467;SDS011;5281;48.878;9.394;2023-02-01T09:30:10;10.17;;;2.63;;
10467;SDS011;5281;48.878;9.394;2023-02-01T09:32:37;8.67;;;2.30;;
10467;SDS011;5281;48.878;9.394;2023-02-01T09:35:05;10.93;;;2.97;;
10467;SDS011;5281;48.878;9.394;2023-02-01T09:37:32;6.23;;;2.20;;
10467;SDS011;5281;48.878;9.394;2023-02-01T09:39:59;5.63;;;1.97;;
10467;SDS011;5281;48.878;9.394;2023-02-01T09:42:32;8.60;;;2.50;;
10467;SDS011;5281;48.878;9.394;2023-02-01T09:45:14;9.37;;;3.70;;
10467;SDS011;5281;48.878;9.394;2023-02-01T09:47:49;7.33;;;2.43;;
10467;SDS011;5281;48.878;9.394;2023-02-01T09:50:21;7.30;;;2.43;;
10467;SDS011;5281;48.878;9.394;2023-02-01T09:52:55;11.00;;;2.50;;
10467;SDS011;5281;48.878;9.394;2023-02-01T09:55:28;10.13;;;2.57;;
10467;SDS011;5281;48.878;9.394;2023-02-01T09:58:01;6.73;;;2.40;;
10467;SDS011;5281;48.878;9.394;2023-02-01T10:00:30;10.37;;;2.70;;
10467;SDS011;5281;48.878;9.394;2023-02-01T10:03:00;5.83;;;2.10;;
10467;SDS011;5281;48.878;9.394;2023-02-01T10:05:37;11.00;;;2.50;;
10467;SDS011;5281;48.878;9.394;2023-02-01T10:08:23;7.60;;;2.40;;
10467;SDS011;5281;48.878;9.394;2023-02-01T10:10:58;9.43;;;2.90;;
10467;SDS011;5281;48.878;9.394;2023-02-01T10:13:39;8.70;;;3.00;;
10467;SDS011;5281;48.878;9.394;2023-02-01T10:16:20;9.97;;;2.40;;
10467;SDS011;5281;48.878;9.394;2023-02-01T10:18:57;9.43;;;2.47;;
10467;SDS011;5281;48.878;9.394;2023-02-01T10:21:40;6.37;;;2.30;;
10467;SDS011;5281;48.878;9.394;2023-02-01T10:24:18;10.27;;;3.07;;
10467;SDS011;5281;48.878;9.394;2023-02-01T10:27:12;10.93;;;2.30;;
10467;SDS011;5281;48.878;9.394;2023-02-01T10:29:43;13.20;;;2.60;;
10467;SDS011;5281;48.878;9.394;2023-02-01T10:32:15;10.80;;;2.60;;
10467;SDS011;5281;48.878;9.394;2023-02-01T10:34:46;7.90;;;2.60;;
10467;SDS011;5281;48.878;9.394;2023-02-01T10:37:20;7.67;;;2.27;;
10467;SDS011;5281;48.878;9.394;2023-02-01T10:39:52;8.70;;;2.90;;
10467;SDS011;5281;48.878;9.394;2023-02-01T10:42:21;6.70;;;2.83;;
10467;SDS011;5281;48.878;9.394;2023-02-01T10:44:51;9.57;;;2.77;;
10467;SDS011;5281;48.878;9.394;2023-02-01T10:47:19;8.87;;;3.00;;
10467;SDS011;5281;48.878;9.394;2023-02-01T10:49:47;9.57;;;2.70;;
10467;SDS011;5281;48.878;9.394;2023-02-01T10:52:24;8.17;;;2.53;;
10467;SDS011;5281;48.878;9.394;2023-02-01T10:58:03;8.03;;;3.17;;
10467;SDS011;5281;48.878;9.394;2023-02-01T11:00:34;9.90;;;2.40;;
10467;SDS011;5281;48.878;9.394;2023-02-01T11:03:21;10.80;;;2.80;;
10467;SDS011;5281;48.878;9.394;2023-02-01T11:06:08;11.47;;;3.53;;
10467;SDS011;5281;48.878;9.394;2023-02-01T11:08:43;10.80;;;2.80;;
10467;SDS011;5281;48.878;9.394;2023-02-01T11:11:13;9.67;;;3.03;;
10467;SDS011;5281;48.878;9.394;2023-02-01T11:13:40;6.67;;;2.53;;
10467;SDS011;5281;48.878;9.394;2023-02-01T11:16:10;9.07;;;2.40;;
10467;SDS011;5281;48.878;9.394;2023-02-01T11:18:39;11.77;;;3.30;;
10467;SDS011;5281;48.878;9.394;2023-02-01T11:21:06;7.00;;;2.30;;
10467;SDS011;5281;48.878;9.394;2023-02-01T11:23:39;11.63;;;2.70;;
10467;SDS011;5281;48.878;9.394;2023-02-01T11:26:11;8.10;;;2.47;;
10467;SDS011;5281;48.878;9.394;2023-02-01T11:28:40;10.57;;;2.53;;
10467;SDS011;5281;48.878;9.394;2023-02-01T11:31:13;8.37;;;3.00;;
10467;SDS011;5281;48.878;9.394;2023-02-01T11:33:43;12.40;;;2.60;;
10467;SDS011;5281;48.878;9.394;2023-02-01T11:36:15;10.27;;;3.23;;
10467;SDS011;5281;48.878;9.394;2023-02-01T11:38:45;10.07;;;2.80;;
10467;SDS011;5281;48.878;9.394;2023-02-01T11:41:21;9.67;;;3.03;;
10467;SDS011;5281;48.878;9.394;2023-02-01T11:43:51;14.27;;;3.93;;
10467;SDS011;5281;48.878;9.394;2023-02-01T11:46:21;8.97;;;2.60;;
10467;SDS011;5281;48.878;9.394;2023-02-01T11:48:51;9.97;;;2.53;;
10467;SDS011;5281;48.878;9.394;2023-02-01T11:51:22;11.20;;;2.63;;
10467;SDS011;5281;48.878;9.394;2023-02-01T11:54:20;14.73;;;2.83;;
10467;SDS011;5281;48.878;9.394;2023-02-01T11:57:12;8.90;;;2.60;;
10467;SDS011;5281;48.878;9.394;2023-02-01T12:00:00;9.03;;;2.40;;
10467;SDS011;5281;48.878;9.394;2023-02-01T12:02:40;7.13;;;2.30;;
10467;SDS011;5281;48.878;9.394;2023-02-01T12:05:28;7.77;;;2.90;;
10467;SDS011;5281;48.878;9.394;2023-02-01T12:11:22;6.87;;;2.40;;
10467;SDS011;5281;48.878;9.394;2023-02-01T12:14:01;8.40;;;2.07;;
10467;SDS011;5281;48.878;9.394;2023-02-01T12:16:45;9.80;;;2.73;;
10467;SDS011;5281;48.878;9.394;2023-02-01T12:19:20;7.53;;;2.63;;
10467;SDS011;5281;48.878;9.394;2023-02-01T12:21:55;5.63;;;2.50;;
10467;SDS011;5281;48.878;9.394;2023-02-01T12:24:38;10.57;;;2.40;;
10467;SDS011;5281;48.878;9.394;2023-02-01T12:27:36;13.47;;;2.27;;
10467;SDS011;5281;48.878;9.394;2023-02-01T12:30:18;10.47;;;2.67;;
10467;SDS011;5281;48.878;9.394;2023-02-01T12:33:02;12.13;;;2.97;;
10467;SDS011;5281;48.878;9.394;2023-02-01T12:35:38;9.57;;;2.30;;
10467;SDS011;5281;48.878;9.394;2023-02-01T12:38:20;8.60;;;2.37;;
10467;SDS011;5281;48.878;9.394;2023-02-01T12:41:04;8.70;;;2.53;;
10467;SDS011;5281;48.878;9.394;2023-02-01T12:43:43;8.57;;;2.00;;
10467;SDS011;5281;48.878;9.394;2023-02-01T12:46:16;7.10;;;2.17;;
10467;SDS011;5281;48.878;9.394;2023-02-01T12:48:48;10.97;;;2.60;;
10467;SDS011;5281;48.878;9.394;2023-02-01T12:51:21;9.13;;;2.67;;
10467;SDS011;5281;48.878;9.394;2023-02-01T12:53:52;10.80;;;2.67;;
10467;SDS011;5281;48.878;9.394;2023-02-01T12:56:25;10.63;;;2.70;;
10467;SDS011;5281;48.878;9.394;2023-02-01T12:58:56;10.00;;;2.40;;
10467;SDS011;5281;48.878;9.394;2023-02-01T13:01:28;8.13;;;2.20;;
10467;SDS011;5281;48.878;9.394;2023-02-01T13:04:01;9.77;;;2.37;;
10467;SDS011;5281;48.878;9.394;2023-02-01T13:06:35;10.07;;;2.37;;
10467;SDS011;5281;48.878;9.394;2023-02-01T13:09:09;9.03;;;2.20;;
10467;SDS011;5281;48.878;9.394;2023-02-01T13:11:45;8.40;;;2.67;;
10467;SDS011;5281;48.878;9.394;2023-02-01T13:14:15;13.23;;;2.17;;
10467;SDS011;5281;48.878;9.394;2023-02-01T13:16:50;12.03;;;2.50;;
10467;SDS011;5281;48.878;9.394;2023-02-01T13:19:20;8.43;;;2.33;;
10467;SDS011;5281;48.878;9.394;2023-02-01T13:21:51;7.30;;;2.30;;
10467;SDS011;5281;48.878;9.394;2023-02-01T13:24:27;9.70;;;2.13;;
10467;SDS011;5281;48.878;9.394;2023-02-01T13:26:59;8.27;;;2.00;;
10467;SDS011;5281;48.878;9.394;2023-02-01T13:29:26;8.83;;;2.50;;
10467;SDS011;5281;48.878;9.394;2023-02-01T13:37:48;11.80;;;2.83;;
10467;SDS011;5281;48.878;9.394;2023-02-01T13:43:14;9.10;;;2.33;;
10467;SDS011;5281;48.878;9.394;2023-02-01T13:45:45;9.27;;;2.60;;
10467;SDS011;5281;48.878;9.394;2023-02-01T13:48:19;9.23;;;2.57;;
10467;SDS011;5281;48.878;9.394;2023-02-01T13:50:50;8.53;;;2.73;;
10467;SDS011;5281;48.878;9.394;2023-02-01T13:53:21;7.87;;;2.57;;
10467;SDS011;5281;48.878;9.394;2023-02-01T13:55:55;10.67;;;2.33;;
10467;SDS011;5281;48.878;9.394;2023-02-01T13:58:29;8.27;;;2.07;;
10467;SDS011;5281;48.878;9.394;2023-02-01T14:04:02;11.17;;;2.13;;
10467;SDS011;5281;48.878;9.394;2023-02-01T14:06:42;13.00;;;2.93;;
10467;SDS011;5281;48.878;9.394;2023-02-01T14:09:14;12.57;;;3.13;;
10467;SDS011;5281;48.878;9.394;2023-02-01T14:11:45;5.53;;;2.10;;
10467;SDS011;5281;48.878;9.394;2023-02-01T14:23:22;6.27;;;2.23;;
10467;SDS011;5281;48.878;9.394;2023-02-01T14:28:55;7.77;;;2.40;;
10467;SDS011;5281;48.878;9.394;2023-02-01T14:34:17;6.47;;;1.90;;
10467;SDS011;5281;48.878;9.394;2023-02-01T14:36:48;8.73;;;2.37;;
10467;SDS011;5281;48.878;9.394;2023-02-01T14:39:24;7.40;;;2.33;;
10467;SDS011;5281;48.878;9.394;2023-02-01T14:41:58;9.00;;;3.53;;
10467;SDS011;5281;48.878;9.394;2023-02-01T14:44:29;6.47;;;2.27;;
10467;SDS011;5281;48.878;9.394;2023-02-01T14:47:08;4.60;;;2.00;;
10467;SDS011;5281;48.878;9.394;2023-02-01T14:52:57;6.37;;;2.30;;
10467;SDS011;5281;48.878;9.394;2023-02-01T14:55:37;7.17;;;2.40;;
10467;SDS011;5281;48.878;9.394;2023-02-01T14:58:09;8.20;;;2.87;;
10467;SDS011;5281;48.878;9.394;2023-02-01T15:00:46;12.63;;;2.43;;
10467;SDS011;5281;48.878;9.394;2023-02-01T15:03:16;12.23;;;2.20;;
10467;SDS011;5281;48.878;9.394;2023-02-01T15:05:55;6.40;;;2.10;;
10467;SDS011;5281;48.878;9.394;2023-02-01T15:08:23;11.83;;;2.50;;
10467;SDS011;5281;48.878;9.394;2023-02-01T15:10:54;9.17;;;2.33;;
10467;SDS011;5281;48.878;9.394;2023-02-01T15:13:23;8.53;;;2.33;;
10467;SDS011;5281;48.878;9.394;2023-02-01T15:16:01;9.17;;;2.30;;
10467;SDS011;5281;48.878;9.394;2023-02-01T15:18:30;9.27;;;2.77;;
10467;SDS011;5281;48.878;9.394;2023-02-01T15:20:58;10.27;;;2.20;;
10467;SDS011;5281;48.878;9.394;2023-02-01T15:23:27;8.33;;;2.70;;
10467;SDS011;5281;48.878;9.394;2023-02-01T15:25:56;6.47;;;2.40;;
10467;SDS011;5281;48.878;9.394;2023-02-01T15:28:24;9.00;;;2.60;;
10467;SDS011;5281;48.878;9.394;2023-02-01T15:30:53;8.53;;;2.37;;
10467;SDS011;5281;48.878;9.394;2023-02-01T15:33:21;10.77;;;3.07;;
10467;SDS011;5281;48.878;9.394;2023-02-01T15:35:49;8.30;;;2.00;;
10467;SDS011;5281;48.878;9.394;2023-02-01T15:38:19;10.03;;;2.30;;
10467;SDS011;5281;48.878;9.394;2023-02-01T15:41:03;15.27;;;2.47;;
10467;SDS011;5281;48.878;9.394;2023-02-01T15:43:36;5.87;;;2.10;;
10467;SDS011;5281;48.878;9.394;2023-02-01T15:46:09;7.60;;;2.03;;
10467;SDS011;5281;48.878;9.394;2023-02-01T15:48:43;7.67;;;2.00;;
10467;SDS011;5281;48.878;9.394;2023-02-01T15:51:13;7.07;;;2.17;;
10467;SDS011;5281;48.878;9.394;2023-02-01T15:53:46;9.97;;;2.37;;
10467;SDS011;5281;48.878;9.394;2023-02-01T15:56:17;8.57;;;2.13;;
10467;SDS011;5281;48.878;9.394;2023-02-01T15:58:50;12.63;;;2.70;;
10467;SDS011;5281;48.878;9.394;2023-02-01T16:01:20;8.10;;;2.37;;
10467;SDS011;5281;48.878;9.394;2023-02-01T16:03:48;8.10;;;2.13;;